Time;durP1;ratioP1;P1;durP2;ratioP2;P2;SDS_P1;SDS_P2;PMS_P1;PMS_P2;Temp;Humidity;BMP_temperature;BMP_pressure;BME280_temperature;BME280_humidity;BME280_pressure;Samples;Min_cycle;Max_cycle;Signal;HPM_P1;HPM_P2
2022/11/21 00:00:38;;;;;;;4.73;4.37;;;12.60;99.90;;;12.73;76.04;93665.31;5044169;28;20459;-56
2022/11/21 00:03:06;;;;;;;5.97;5.30;;;12.60;99.90;;;12.78;75.92;93682.38;5044821;28;20448;-56
2022/11/21 00:05:33;;;;;;;7.83;6.33;;;12.60;99.90;;;12.77;75.89;93671.03;5043965;28;20505;-55
2022/11/21 00:08:00;;;;;;;7.27;6.50;;;12.60;99.90;;;12.77;76.08;93696.59;5043370;28;20456;-57
2022/11/21 00:10:28;;;;;;;9.77;7.73;;;12.60;99.90;;;12.75;76.03;93678.31;5043939;28;20648;-56
2022/11/21 00:12:56;;;;;;;7.87;6.60;;;12.60;99.90;;;12.74;75.88;93666.91;5043935;28;20464;-56
2022/11/21 00:15:24;;;;;;;10.10;7.63;;;12.60;99.90;;;12.75;75.99;93667.75;5043553;28;20494;-57
2022/11/21 00:17:52;;;;;;;8.23;7.23;;;12.60;99.90;;;12.75;75.77;93673.03;5048224;28;20474;-55
2022/11/21 00:20:20;;;;;;;10.10;7.87;;;12.60;99.90;;;12.75;76.41;93667.75;5048197;28;20472;-55
2022/11/21 00:22:47;;;;;;;14.53;7.80;;;12.60;99.90;;;12.75;75.99;93654.56;5046795;28;20462;-54
2022/11/21 00:25:15;;;;;;;11.37;8.00;;;12.60;99.90;;;12.74;76.03;93668.75;5047473;28;20471;-55
2022/11/21 00:27:42;;;;;;;12.20;7.37;;;12.50;99.90;;;12.72;75.78;93670.75;5046648;28;20502;-57
2022/11/21 00:30:12;;;;;;;8.83;6.97;;;12.50;99.90;;;12.73;76.13;93682.94;5048943;28;20518;-57
2022/11/21 00:32:39;;;;;;;9.20;7.90;;;12.50;99.90;;;12.73;75.91;93690.84;5047547;28;20902;-54
2022/11/21 00:35:07;;;;;;;8.27;7.00;;;12.50;99.90;;;12.74;76.16;93666.13;5047650;28;21007;-57
2022/11/21 00:37:35;;;;;;;14.47;9.20;;;12.60;99.90;;;12.74;76.17;93645.00;5047656;28;20498;-57
2022/11/21 00:40:02;;;;;;;10.57;8.90;;;12.60;99.90;;;12.70;76.09;93612.06;5048022;28;20479;-57
2022/11/21 00:42:29;;;;;;;12.47;8.37;;;12.50;99.90;;;12.64;75.63;93603.09;5046387;28;20483;-56
2022/11/21 00:44:56;;;;;;;9.60;7.77;;;12.50;99.90;;;12.59;75.62;93605.44;5047299;28;20476;-54
2022/11/21 00:47:25;;;;;;;5.93;5.33;;;12.50;99.90;;;12.54;75.88;93615.72;5047181;28;20464;-53
2022/11/21 00:49:52;;;;;;;9.03;7.67;;;12.40;99.90;;;12.51;75.84;93619.53;5048156;28;20475;-58
2022/11/21 00:52:20;;;;;;;11.07;7.07;;;12.40;99.90;;;12.50;76.19;93617.91;5047810;28;20460;-56
2022/11/21 00:54:47;;;;;;;10.90;7.20;;;12.40;99.90;;;12.50;76.27;93628.47;5048021;28;20476;-54
2022/11/21 00:57:14;;;;;;;10.00;7.67;;;12.40;99.90;;;12.50;76.20;93612.66;5046576;28;20986;-56
2022/11/21 00:59:41;;;;;;;7.97;6.53;;;12.30;99.90;;;12.49;76.25;93615.47;5043211;28;20494;-56
2022/11/21 01:02:09;;;;;;;7.77;6.43;;;12.30;99.90;;;12.47;76.26;93625.34;5047253;28;20456;-58
2022/11/21 01:04:38;;;;;;;6.83;6.07;;;12.30;99.90;;;12.46;76.20;93616.63;5046025;28;20566;-54
2022/11/21 01:07:05;;;;;;;7.53;6.40;;;12.30;99.90;;;12.47;76.34;93614.81;5046706;28;20468;-57
2022/11/21 01:09:32;;;;;;;6.30;5.10;;;12.30;99.90;;;12.45;76.27;93603.63;5046619;28;20518;-54
2022/11/21 01:12:00;;;;;;;5.53;5.13;;;12.30;99.90;;;12.45;76.25;93601.81;5047511;28;21078;-54
2022/11/21 01:14:27;;;;;;;5.83;5.30;;;12.30;99.90;;;12.45;76.43;93593.91;5047187;28;20483;-58
2022/11/21 01:16:54;;;;;;;7.47;5.97;;;12.30;99.90;;;12.45;76.05;93593.09;5047064;28;20495;-58
2022/11/21 01:19:21;;;;;;;5.90;5.40;;;12.30;99.90;;;12.44;76.09;93589.66;5047594;28;20484;-56
2022/11/21 01:21:50;;;;;;;5.37;4.87;;;12.30;99.90;;;12.43;76.98;93606.47;5046770;28;20502;-57
2022/11/21 01:24:17;;;;;;;6.90;6.20;;;12.30;99.90;;;12.44;76.34;93609.91;5046858;28;20546;-57
2022/11/21 01:26:44;;;;;;;7.57;5.90;;;12.30;99.90;;;12.44;76.48;93602.81;5046421;28;20464;-56
2022/11/21 01:29:12;;;;;;;15.20;6.07;;;12.30;99.90;;;12.44;76.26;93631.84;5046274;28;20479;-56
2022/11/21 01:31:39;;;;;;;9.03;5.80;;;12.30;99.90;;;12.44;76.41;93609.91;5046668;28;20472;-56
2022/11/21 01:34:06;;;;;;;6.60;6.00;;;12.30;99.90;;;12.41;76.54;93613.75;5046371;28;20476;-57
2022/11/21 01:36:34;;;;;;;7.93;6.43;;;12.30;99.90;;;12.39;76.48;93610.44;5047063;28;20760;-55
2022/11/21 01:39:04;;;;;;;11.50;6.43;;;12.20;99.90;;;12.36;76.71;93600.25;5045488;28;20480;-56
2022/11/21 01:41:34;;;;;;;6.67;5.90;;;12.20;99.90;;;12.35;76.67;93601.28;5046696;28;20460;-54
2022/11/21 01:44:02;;;;;;;8.53;6.47;;;12.20;99.90;;;12.34;76.86;93589.91;5045737;28;20561;-56
2022/11/21 01:46:29;;;;;;;7.33;6.63;;;12.20;99.90;;;12.36;76.84;93589.72;5045351;28;20452;-56
2022/11/21 01:49:00;;;;;;;10.23;5.90;;;12.20;99.90;;;12.38;76.97;93583.28;5043567;28;20945;-55
2022/11/21 01:51:31;;;;;;;7.87;5.53;;;12.20;99.90;;;12.41;77.05;93582.09;5046349;28;20452;-57
2022/11/21 01:54:01;;;;;;;6.37;5.77;;;12.20;99.90;;;12.43;77.04;93577.44;5046191;28;20474;-56
2022/11/21 01:56:31;;;;;;;5.80;5.30;;;12.30;99.90;;;12.47;76.90;93581.38;5046859;28;20565;-54
2022/11/21 01:58:59;;;;;;;4.80;4.40;;;12.30;99.90;;;12.49;76.94;93557.44;5045477;28;20477;-55
2022/11/21 02:01:26;;;;;;;7.03;6.33;;;12.30;99.90;;;12.50;76.83;93565.19;5046035;28;20464;-57
2022/11/21 02:03:54;;;;;;;8.07;6.73;;;12.30;99.90;;;12.51;76.76;93566.78;5045408;28;20483;-55
2022/11/21 02:06:21;;;;;;;9.80;6.07;;;12.40;99.90;;;12.54;76.39;93587.53;5046747;28;20460;-57
2022/11/21 02:08:48;;;;;;;6.30;5.70;;;12.40;99.90;;;12.56;76.79;93582.06;5041987;28;20478;-56
2022/11/21 02:11:20;;;;;;;8.63;5.47;;;12.40;99.90;;;12.56;76.48;93589.97;5043595;28;20451;-51
2022/11/21 02:13:49;;;;;;;14.10;5.40;;;12.40;99.90;;;12.57;76.32;93598.72;5046162;28;20483;-53
2022/11/21 02:16:16;;;;;;;9.07;6.20;;;12.40;99.90;;;12.55;76.71;93589.16;5045003;28;20541;-57
2022/11/21 02:18:43;;;;;;;5.50;5.10;;;12.40;99.90;;;12.54;76.37;93587.53;5045890;28;20514;-54
2022/11/21 02:21:16;;;;;;;5.80;5.40;;;12.40;99.90;;;12.53;76.37;93591.19;5044825;28;20466;-55
2022/11/21 02:23:49;;;;;;;4.77;4.40;;;12.40;99.90;;;12.54;76.71;93584.88;5045741;28;20552;-56
2022/11/21 02:26:17;;;;;;;6.10;5.50;;;12.40;99.90;;;12.53;76.50;93575.34;5046105;28;20524;-55
2022/11/21 02:28:44;;;;;;;15.03;5.30;;;12.40;99.90;;;12.52;76.52;93579.00;5045072;28;21030;-54
2022/11/21 02:31:12;;;;;;;9.63;5.60;;;12.40;99.90;;;12.52;76.94;93571.06;5041464;28;20459;-57
2022/11/21 02:33:39;;;;;;;7.13;5.23;;;12.40;99.90;;;12.54;76.55;93581.44;5044123;28;20479;-52
2022/11/21 02:36:48;;;;;;;5.50;5.00;;;12.40;99.90;;;12.53;76.58;93570.09;5045424;28;20459;-57
2022/11/21 02:39:19;;;;;;;5.43;5.00;;;12.40;99.90;;;12.53;76.59;93578.00;4996874;28;20540;-56
2022/11/21 02:41:57;;;;;;;5.67;5.13;;;12.40;99.90;;;12.54;76.82;93574.34;5044680;28;20451;-57
2022/11/21 02:44:27;;;;;;;7.40;4.10;;;12.40;99.90;;;12.57;76.87;93565.25;5042111;28;20487;-56
2022/11/21 02:46:54;;;;;;;7.03;3.90;;;12.40;99.90;;;12.58;76.69;93577.44;5045957;28;20507;-56
2022/11/21 02:49:30;;;;;;;4.30;4.00;;;12.40;99.90;;;12.60;76.69;93567.50;5045247;28;20483;-55
2022/11/21 02:51:57;;;;;;;5.33;4.83;;;12.40;99.90;;;12.61;76.39;93553.34;5045137;28;20448;-53
2022/11/21 02:54:25;;;;;;;6.37;4.40;;;12.40;99.90;;;12.63;76.52;93542.59;5044345;28;21043;-56
2022/11/21 02:56:54;;;;;;;4.50;4.10;;;12.40;99.90;;;12.64;76.53;93538.94;5044616;28;20491;-57
2022/11/21 02:59:21;;;;;;;5.80;5.27;;;12.50;99.90;;;12.64;76.43;93541.59;5045635;28;20507;-55
2022/11/21 03:01:48;;;;;;;8.57;4.63;;;12.50;99.90;;;12.63;76.50;93534.69;5044695;28;20518;-57
2022/11/21 03:04:16;;;;;;;5.10;4.03;;;12.50;99.90;;;12.66;76.49;93535.13;5044185;28;20484;-56
2022/11/21 03:06:44;;;;;;;9.33;5.20;;;12.50;99.90;;;12.70;76.84;93538.19;5041810;28;20468;-56
2022/11/21 03:09:12;;;;;;;6.03;4.37;;;12.50;99.90;;;12.73;76.62;93537.81;5041498;28;20475;-56
2022/11/21 03:11:39;;;;;;;6.13;4.90;;;12.50;99.90;;;12.77;76.99;93543.56;5044132;28;20509;-56
2022/11/21 03:14:08;;;;;;;4.47;4.00;;;12.60;99.90;;;12.80;76.79;93538.72;5045432;28;21000;-54
2022/11/21 03:16:35;;;;;;;4.60;4.20;;;12.60;99.90;;;12.81;77.02;93523.72;5045074;28;21019;-57
2022/11/21 03:19:02;;;;;;;4.43;3.93;;;12.60;99.90;;;12.82;76.54;93536.72;5045084;28;20605;-53
2022/11/21 03:21:30;;;;;;;3.00;2.70;;;12.70;99.90;;;12.85;76.53;93531.06;5044888;28;20483;-55
2022/11/21 03:23:57;;;;;;;8.13;2.80;;;12.70;99.90;;;12.88;76.31;93537.78;5045329;28;20533;-57
2022/11/21 03:26:24;;;;;;;6.13;3.57;;;12.70;99.90;;;12.91;76.50;93537.44;5045591;28;20459;-56
2022/11/21 03:28:52;;;;;;;4.00;2.83;;;12.70;99.90;;;12.93;76.36;93537.25;5045144;28;21052;-56
2022/11/21 03:31:20;;;;;;;6.93;3.20;;;12.80;99.90;;;12.93;76.34;93539.88;5044689;28;20903;-57
2022/11/21 03:33:47;;;;;;;8.33;3.83;;;12.70;99.90;;;12.90;75.83;93539.25;5045261;28;20476;-54
2022/11/21 03:36:15;;;;;;;4.07;3.13;;;12.80;99.90;;;12.89;76.12;93537.63;5043591;28;20452;-57
2022/11/21 03:38:42;;;;;;;6.00;2.77;;;12.70;99.90;;;12.87;76.48;93522.97;5043242;28;20498;-54
2022/11/21 03:41:28;;;;;;;5.77;3.50;;;12.70;99.90;;;12.86;75.82;93532.72;5043375;28;20852;-54
2022/11/21 03:43:55;;;;;;;6.13;3.50;;;12.70;99.90;;;12.85;76.29;93538.97;5044423;28;20516;-55
2022/11/21 03:46:24;;;;;;;4.07;2.90;;;12.70;99.90;;;12.86;76.31;93523.97;5045328;28;20455;-53
2022/11/21 03:48:51;;;;;;;3.07;2.60;;;12.70;99.90;;;12.85;76.19;93517.88;5045045;28;20471;-56
2022/11/21 03:51:18;;;;;;;4.20;2.30;;;12.70;99.90;;;12.86;76.01;93529.25;5047365;28;20466;-55
2022/11/21 03:53:46;;;;;;;9.50;2.77;;;12.70;99.90;;;12.87;76.11;93523.78;5047746;28;20487;-57
2022/11/21 03:56:13;;;;;;;9.57;3.00;;;12.70;99.90;;;12.89;76.07;93527.06;5047914;28;20467;-53
2022/11/21 03:58:40;;;;;;;4.03;2.20;;;12.70;99.90;;;12.94;75.88;93520.41;5049096;28;20565;-53
2022/11/21 04:01:07;;;;;;;5.13;2.07;;;12.80;99.90;;;12.97;75.33;93509.47;5046496;28;20462;-54
2022/11/21 04:03:36;;;;;;;8.80;2.27;;;12.80;99.90;;;13.02;75.24;93509.72;5048045;28;20556;-56
2022/11/21 04:06:04;;;;;;;4.47;2.00;;;12.80;99.90;;;13.06;75.02;93511.00;5047226;28;20482;-56
2022/11/21 04:08:31;;;;;;;5.37;2.07;;;12.90;99.90;;;13.10;74.60;93499.03;5048546;28;20462;-55
2022/11/21 04:10:58;;;;;;;4.67;1.47;;;12.90;99.90;;;13.15;74.07;93499.28;5047007;28;20513;-57
2022/11/21 04:13:25;;;;;;;5.53;1.40;;;12.90;99.90;;;13.22;73.36;93497.50;5048805;28;20562;-56
2022/11/21 04:15:53;;;;;;;4.83;1.40;;;13.00;99.90;;;13.32;72.66;93499.00;5044484;28;20447;-55
2022/11/21 04:18:20;;;;;;;3.30;1.73;;;13.10;99.90;;;13.41;72.47;93500.53;5044637;28;20521;-54
2022/11/21 04:20:48;;;;;;;8.60;1.80;;;13.20;99.90;;;13.51;72.00;93508.97;5047863;28;20463;-55
2022/11/21 04:23:16;;;;;;;6.87;1.63;;;13.30;99.90;;;13.59;72.12;93519.38;5047634;28;20882;-55
2022/11/21 04:25:43;;;;;;;10.17;2.10;;;13.40;99.90;;;13.67;71.94;93517.63;5046807;28;20466;-60
2022/11/21 04:28:15;;;;;;;10.47;2.10;;;13.40;99.90;;;13.73;72.08;93501.00;5047349;28;20459;-56
2022/11/21 04:30:42;;;;;;;7.37;2.60;;;13.50;99.90;;;13.78;71.43;93509.97;5047093;28;20605;-56
2022/11/21 04:33:09;;;;;;;6.27;1.80;;;13.60;99.90;;;13.80;71.35;93520.34;5047455;28;20491;-56
2022/11/21 04:35:36;;;;;;;6.60;2.40;;;13.60;99.90;;;13.88;70.52;93522.84;5046007;28;20486;-56
2022/11/21 04:38:05;;;;;;;7.73;2.23;;;13.70;99.90;;;13.93;71.04;93533.66;5047258;28;20995;-57
2022/11/21 04:40:32;;;;;;;7.43;2.63;;;13.70;99.90;;;13.98;70.41;93533.88;5047660;28;20533;-58
2022/11/21 04:43:00;;;;;;;15.73;3.30;;;13.80;99.90;;;14.04;70.00;93534.94;5047032;28;21041;-58
2022/11/21 04:45:27;;;;;;;9.10;2.37;;;13.80;99.90;;;14.10;70.48;93541.28;5046157;28;20502;-56
2022/11/21 04:47:54;;;;;;;9.70;2.23;;;13.90;99.90;;;14.14;70.48;93542.50;5047129;28;20510;-55
2022/11/21 04:50:21;;;;;;;5.30;1.67;;;13.90;99.90;;;14.19;69.98;93541.94;5047943;28;20467;-57
2022/11/21 04:52:51;;;;;;;11.90;2.40;;;14.00;99.90;;;14.22;69.33;93538.91;5048669;28;20543;-56
2022/11/21 04:55:20;;;;;;;8.47;1.40;;;14.00;99.90;;;14.24;69.42;93534.25;5047916;28;20483;-55
2022/11/21 04:57:47;;;;;;;3.47;1.70;;;14.00;99.90;;;14.24;69.71;93535.06;5047868;28;20487;-56
2022/11/21 05:00:16;;;;;;;5.13;1.50;;;14.00;99.90;;;14.26;69.24;93553.38;5046859;28;20476;-57
2022/11/21 05:02:43;;;;;;;11.43;3.07;;;14.00;99.90;;;14.25;68.92;93546.44;5047236;28;20936;-57
2022/11/21 05:05:10;;;;;;;12.20;2.37;;;14.00;99.90;;;14.28;70.04;93549.53;5043133;28;20494;-56
2022/11/21 05:07:38;;;;;;;11.10;1.83;;;14.10;99.90;;;14.35;70.16;93555.66;5047174;28;20490;-53
2022/11/21 05:10:06;;;;;;;7.93;2.67;;;14.10;99.90;;;14.43;70.44;93559.97;5046309;28;20471;-56
2022/11/21 05:15:20;;;;;;;8.13;1.93;;;14.30;99.90;;;14.67;70.07;93574.56;5043949;28;20455;-54
2022/11/21 05:17:47;;;;;;;2.30;0.87;;;14.40;99.90;;;14.72;68.45;93599.63;5047976;28;20487;-54
2022/11/21 05:20:15;;;;;;;1.53;0.80;;;14.50;99.90;;;14.66;68.23;93602.03;5047913;28;20658;-56
2022/11/21 05:22:42;;;;;;;6.53;1.47;;;14.50;99.90;;;14.57;67.80;93605.84;5046602;28;20471;-55
2022/11/21 05:25:10;;;;;;;2.37;1.37;;;14.40;99.90;;;14.49;67.52;93613.94;5046004;28;21152;-55
2022/11/21 05:27:38;;;;;;;1.10;0.73;;;14.30;99.90;;;14.40;67.29;93630.97;5045882;28;20487;-54
2022/11/21 05:30:07;;;;;;;1.83;0.50;;;14.20;99.90;;;14.34;66.81;93616.69;5046345;28;20483;-56
2022/11/21 05:32:34;;;;;;;0.90;0.73;;;14.10;99.90;;;14.23;66.12;93633.09;5044134;28;21003;-54
2022/11/21 05:35:02;;;;;;;0.80;0.70;;;14.10;99.90;;;14.09;65.80;93637.47;5045975;28;20852;-55
2022/11/21 05:37:29;;;;;;;10.13;2.50;;;13.90;99.90;;;13.96;65.10;93640.84;5045329;28;20901;-55
2022/11/21 05:39:56;;;;;;;13.33;1.77;;;13.80;99.90;;;13.81;63.57;93656.75;5045649;28;20551;-56
2022/11/21 05:45:08;;;;;;;1.20;1.00;;;13.50;99.90;;;13.42;64.92;93673.88;5042594;28;20484;-57
2022/11/21 05:47:36;;;;;;;0.80;0.70;;;13.30;99.90;;;13.18;65.12;93667.84;5046300;28;20517;-55
2022/11/21 05:50:03;;;;;;;0.93;0.80;;;13.10;99.90;;;12.90;64.94;93676.50;5046851;28;20972;-55
2022/11/21 05:52:31;;;;;;;0.80;0.50;;;12.90;99.90;;;12.64;64.13;93670.84;5045157;28;20451;-56
2022/11/21 05:54:58;;;;;;;0.83;0.60;;;12.60;99.90;;;12.37;65.26;93676.53;5046483;28;20472;-56
2022/11/21 05:57:26;;;;;;;0.80;0.60;;;12.30;99.90;;;12.19;65.80;93689.25;5045762;28;20487;-55
2022/11/21 05:59:53;;;;;;;0.80;0.70;;;12.10;99.90;;;12.06;66.18;93679.31;5046146;28;20483;-55
2022/11/21 06:05:07;;;;;;;0.90;0.73;;;11.80;99.90;;;11.72;65.18;93692.91;5046422;28;20486;-56
2022/11/21 06:07:34;;;;;;;1.00;0.70;;;11.70;99.90;;;11.51;65.38;93706.69;5045928;28;20452;-56
2022/11/21 06:10:02;;;;;;;0.80;0.63;;;11.50;99.90;;;11.29;65.47;93696.81;5046400;28;20985;-55
2022/11/21 06:12:29;;;;;;;0.80;0.60;;;11.30;99.90;;;11.13;66.50;93708.22;5045478;28;20974;-56
2022/11/21 06:14:56;;;;;;;0.80;0.50;;;11.10;99.90;;;10.96;66.23;93719.81;5046293;28;20476;-55
2022/11/21 06:17:25;;;;;;;1.03;0.90;;;11.00;99.90;;;10.83;66.91;93730.03;5046181;28;20460;-56
2022/11/21 06:19:52;;;;;;;0.90;0.70;;;10.80;99.90;;;10.73;67.00;93719.72;5046445;28;20475;-56
2022/11/21 06:22:20;;;;;;;1.10;0.83;;;10.70;99.90;;;10.66;66.75;93724.00;5049163;28;20459;-53
2022/11/21 06:24:47;;;;;;;0.90;0.60;;;10.60;99.90;;;10.56;67.21;93735.53;5048050;28;20482;-55
2022/11/21 06:27:14;;;;;;;0.97;0.87;;;10.60;99.90;;;10.48;67.72;93742.63;5046328;28;20459;-56
2022/11/21 06:29:41;;;;;;;0.90;0.80;;;10.50;99.90;;;10.38;67.37;93734.94;5046334;28;20483;-56
2022/11/21 06:32:09;;;;;;;0.80;0.80;;;10.30;99.90;;;10.29;67.37;93743.78;5045954;28;20452;-55
2022/11/21 06:34:37;;;;;;;0.80;0.57;;;10.30;99.90;;;10.22;67.46;93751.50;5045533;28;20472;-57
2022/11/21 06:37:05;;;;;;;1.00;0.67;;;10.20;99.90;;;10.13;67.60;93763.00;5042281;28;20460;-57
2022/11/21 06:39:32;;;;;;;1.30;0.80;;;10.10;99.90;;;10.05;68.25;93748.91;5041940;28;20499;-55
2022/11/21 06:42:01;;;;;;;0.73;0.43;;;10.10;99.90;;;9.97;68.14;93762.00;5043023;28;20452;-55
2022/11/21 06:44:28;;;;;;;0.80;0.50;;;10.00;99.90;;;9.91;68.35;93767.91;5044448;28;20464;-55
2022/11/21 06:46:55;;;;;;;0.80;0.63;;;9.90;99.90;;;9.84;68.97;93780.06;5042436;28;20478;-55
2022/11/21 06:49:23;;;;;;;0.83;0.57;;;9.80;99.90;;;9.76;68.69;93772.16;5043434;28;20563;-57
2022/11/21 06:51:51;;;;;;;1.57;1.00;;;9.80;99.90;;;9.66;69.20;93781.00;5042181;28;20961;-56
2022/11/21 06:54:19;;;;;;;1.00;0.90;;;9.70;99.90;;;9.54;69.65;93819.03;5043588;28;20472;-56
2022/11/21 06:56:46;;;;;;;0.80;0.80;;;9.60;99.90;;;9.46;70.11;93800.66;5041877;28;20988;-56
2022/11/21 06:59:13;;;;;;;2.30;1.07;;;9.50;99.90;;;9.37;70.28;93822.59;5044009;28;20626;-56
2022/11/21 07:01:41;;;;;;;4.63;1.00;;;9.40;99.90;;;9.28;70.90;93834.84;5041441;28;20945;-57
2022/11/21 07:04:08;;;;;;;1.50;1.00;;;9.30;99.90;;;9.28;71.36;93850.59;5043809;28;20472;-56
2022/11/21 07:06:35;;;;;;;3.30;0.80;;;9.30;99.90;;;9.26;70.59;93856.00;5041632;28;20531;-56
2022/11/21 07:09:04;;;;;;;4.30;1.50;;;9.30;99.90;;;9.23;70.48;93847.63;5043292;28;20468;-57
2022/11/21 07:11:31;;;;;;;2.20;1.37;;;9.20;99.90;;;9.17;71.08;93849.09;5041295;28;20458;-57
2022/11/21 07:13:58;;;;;;;3.53;1.40;;;9.20;99.90;;;9.09;70.79;93857.75;5043431;28;20709;-56
2022/11/21 07:16:29;;;;;;;1.97;1.20;;;9.10;99.90;;;9.06;71.46;93862.47;5042423;28;20456;-55
2022/11/21 07:18:56;;;;;;;3.43;1.30;;;9.10;99.90;;;9.07;71.37;93869.38;5039428;28;20965;-54
2022/11/21 07:21:24;;;;;;;1.37;0.80;;;9.10;99.90;;;9.06;72.06;93880.81;5042606;28;20563;-57
2022/11/21 07:23:51;;;;;;;1.03;0.93;;;9.00;99.90;;;9.03;71.23;93887.22;5044941;28;21029;-54
2022/11/21 07:26:20;;;;;;;0.90;0.70;;;9.00;99.90;;;9.03;70.98;93887.22;5049825;28;20452;-54
2022/11/21 07:28:47;;;;;;;0.90;0.77;;;9.00;99.90;;;9.03;71.29;93884.59;5049690;28;20890;-56
2022/11/21 07:31:14;;;;;;;1.33;1.17;;;9.00;99.90;;;9.01;71.38;93889.16;5049553;28;20447;-56
2022/11/21 07:33:43;;;;;;;1.40;1.00;;;9.00;99.90;;;9.01;71.05;93880.47;5048273;28;20472;-55
2022/11/21 07:36:10;;;;;;;1.90;1.13;;;9.00;99.90;;;9.02;71.29;93924.09;5049916;28;20907;-56
2022/11/21 07:38:37;;;;;;;1.10;1.00;;;9.00;99.90;;;9.00;71.23;93916.38;5049735;28;20495;-56
2022/11/21 07:41:05;;;;;;;3.67;0.97;;;9.00;99.90;;;9.00;71.50;93916.38;5049579;28;20534;-56
2022/11/21 07:43:33;;;;;;;10.63;1.60;;;9.00;99.90;;;9.00;71.54;93915.53;5049428;28;20455;-56
2022/11/21 07:46:01;;;;;;;3.30;1.30;;;9.00;99.90;;;9.03;71.27;93926.56;5049371;28;20452;-56
2022/11/21 07:48:28;;;;;;;1.43;0.80;;;9.00;99.90;;;9.08;71.50;93936.59;5049431;28;20520;-56
2022/11/21 07:50:55;;;;;;;2.30;0.90;;;9.00;99.90;;;9.08;71.24;93937.41;5049445;28;20459;-55
2022/11/21 07:53:22;;;;;;;6.40;1.03;;;9.10;99.90;;;9.07;71.13;93938.38;5049807;28;20452;-58
2022/11/21 07:55:50;;;;;;;0.93;0.70;;;9.10;99.90;;;9.12;70.80;93937.91;5048948;28;20460;-57
2022/11/21 07:58:17;;;;;;;0.77;0.50;;;9.10;99.90;;;9.15;70.57;93940.22;5048835;28;20491;-57
2022/11/21 08:00:46;;;;;;;6.90;0.80;;;9.10;99.90;;;9.15;70.80;93951.56;5048914;28;20568;-57
2022/11/21 08:03:13;;;;;;;0.80;0.80;;;9.20;99.90;;;9.20;70.71;93943.22;5048897;28;20517;-56
2022/11/21 08:05:41;;;;;;;0.83;0.77;;;9.20;99.90;;;9.25;70.41;93946.22;5049390;28;20444;-56
2022/11/21 08:08:09;;;;;;;1.33;1.23;;;9.20;99.90;;;9.28;69.82;93945.91;5046842;28;20452;-56
2022/11/21 08:10:37;;;;;;;2.70;0.80;;;9.30;99.90;;;9.29;70.21;93949.34;5049021;28;20476;-56
2022/11/21 08:13:05;;;;;;;3.90;0.57;;;9.30;99.90;;;9.40;70.45;93956.13;5049073;28;20820;-56
2022/11/21 08:15:32;;;;;;;0.80;0.70;;;9.30;99.90;;;9.53;70.40;93953.91;5048631;28;20467;-57
2022/11/21 08:18:08;;;;;;;1.03;0.93;;;9.40;99.90;;;9.72;69.30;93962.53;5048535;28;20471;-56
2022/11/21 08:20:35;;;;;;;1.27;0.93;;;9.60;99.90;;;9.84;69.04;93962.09;5048924;28;20491;-57
2022/11/21 08:23:03;;;;;;;1.20;1.10;;;9.70;99.90;;;9.93;68.39;93977.88;5047517;28;20451;-55
2022/11/21 08:25:30;;;;;;;0.97;0.77;;;9.80;99.90;;;9.99;68.70;93972.84;5048772;28;20475;-57
2022/11/21 08:27:57;;;;;;;0.90;0.80;;;9.90;99.90;;;10.03;68.42;93975.97;5049089;28;20964;-57
2022/11/21 08:30:25;;;;;;;2.70;0.70;;;10.00;99.90;;;10.09;66.96;93987.66;5048277;28;20498;-55
2022/11/21 08:32:52;;;;;;;1.00;0.60;;;10.00;99.90;;;10.17;66.19;93982.41;5048305;28;20543;-56
2022/11/21 08:35:21;;;;;;;1.20;1.00;;;10.10;99.90;;;10.27;67.00;93987.53;5047339;28;20471;-57
2022/11/21 08:37:48;;;;;;;0.90;0.80;;;10.20;99.90;;;10.45;66.99;93997.97;5047995;28;20521;-57
2022/11/21 08:40:16;;;;;;;1.10;0.67;;;10.30;99.90;;;10.60;66.07;94001.63;5044757;28;20472;-57
2022/11/21 08:42:43;;;;;;;1.10;0.60;;;10.50;99.90;;;10.64;64.70;94010.00;5044557;28;20513;-56
2022/11/21 08:45:11;;;;;;;5.57;0.83;;;10.50;99.90;;;10.59;63.51;94005.22;5048006;28;20480;-56
2022/11/21 08:47:38;;;;;;;0.90;0.73;;;10.50;99.90;;;10.49;63.74;94004.56;5048597;28;20501;-57
2022/11/21 08:50:06;;;;;;;0.90;0.77;;;10.40;99.80;;;10.40;64.21;94001.88;5048129;28;20479;-57
2022/11/21 08:52:35;;;;;;;1.00;0.90;;;10.40;99.90;;;10.34;63.96;94010.41;5048166;28;20616;-55
2022/11/21 08:55:02;;;;;;;2.67;0.87;;;10.30;99.90;;;10.32;64.93;94011.53;5048007;28;20463;-56
2022/11/21 08:57:30;;;;;;;0.80;0.70;;;10.30;99.90;;;10.32;64.77;94011.53;5047334;28;20451;-54
2022/11/21 08:59:57;;;;;;;0.90;0.70;;;10.30;99.90;;;10.30;64.90;94008.22;5047216;28;20499;-56
2022/11/21 09:02:24;;;;;;;0.90;0.80;;;10.20;99.90;;;10.26;64.15;94013.00;5047560;28;20444;-56
2022/11/21 09:04:52;;;;;;;0.80;0.70;;;10.20;99.80;;;10.21;64.82;94010.84;5045494;28;20477;-57
2022/11/21 09:07:19;;;;;;;0.80;0.70;;;10.20;99.90;;;10.17;64.92;94024.47;5046803;28;20886;-58
2022/11/21 09:09:48;;;;;;;1.37;1.27;;;10.20;99.90;;;10.12;64.48;94021.50;5043241;28;20526;-56
2022/11/21 09:12:15;;;;;;;1.07;0.80;;;10.10;99.90;;;10.07;64.50;94007.97;5047309;28;20452;-55
2022/11/21 09:20:12;;;;;;;1.27;1.17;;;10.00;99.90;;;9.92;65.03;93998.06;5041736;28;20514;-56
2022/11/21 09:22:39;;;;;;;1.10;1.00;;;9.90;99.90;;;9.88;65.64;94004.63;5043336;28;20507;-57
2022/11/21 09:25:08;;;;;;;0.90;0.60;;;9.90;99.90;;;9.82;65.30;94003.47;5047076;28;20537;-56
2022/11/21 09:27:36;;;;;;;2.50;0.70;;;9.80;99.90;;;9.77;65.16;94018.03;5047387;28;20448;-56
2022/11/21 09:30:03;;;;;;;0.80;0.60;;;9.80;99.90;;;9.71;64.98;94023.91;5046740;28;20479;-56
2022/11/21 09:32:31;;;;;;;2.07;1.10;;;9.70;99.90;;;9.64;65.23;94032.41;5045724;28;20571;-53
2022/11/21 09:34:58;;;;;;;0.90;0.80;;;9.70;99.90;;;9.60;65.45;94031.03;5047453;28;20557;-56
2022/11/21 09:37:25;;;;;;;1.93;0.90;;;9.60;99.90;;;9.58;65.77;94029.56;5046857;28;20451;-54
2022/11/21 09:39:53;;;;;;;4.93;2.43;;;9.60;99.90;;;9.58;66.20;94032.19;5046899;28;20507;-57
2022/11/21 09:42:49;;;;;;;0.87;0.80;;;9.60;99.90;;;9.58;66.03;94035.63;5046774;28;20843;-57
2022/11/21 09:45:17;;;;;;;1.40;1.30;;;9.60;99.90;;;9.57;65.92;94033.97;5044908;28;21027;-55
2022/11/21 09:47:46;;;;;;;3.00;0.87;;;9.60;99.90;;;9.57;65.94;94046.28;5046289;28;20460;-55
2022/11/21 09:50:27;;;;;;;1.37;0.80;;;9.50;99.90;;;9.54;66.04;94036.09;5046565;28;21079;-56
2022/11/21 09:52:58;;;;;;;0.90;0.80;;;9.50;99.90;;;9.53;66.40;94048.41;5043677;28;20456;-56
2022/11/21 09:55:31;;;;;;;0.83;0.70;;;9.50;99.90;;;9.50;66.19;94053.97;5044294;28;20949;-57
2022/11/21 09:58:01;;;;;;;1.33;1.10;;;9.50;99.90;;;9.47;65.96;94049.84;5045028;28;20949;-56
2022/11/21 10:00:28;;;;;;;1.23;0.70;;;9.50;99.90;;;9.43;66.10;94051.13;5045967;28;20911;-54
2022/11/21 10:02:55;;;;;;;0.80;0.80;;;9.40;99.90;;;9.39;66.27;94048.94;5046042;28;20444;-55
2022/11/21 10:05:29;;;;;;;1.77;0.90;;;9.40;99.90;;;9.36;66.64;94057.13;5046241;28;21111;-55
2022/11/21 10:07:57;;;;;;;1.40;1.30;;;9.30;99.90;;;9.36;66.52;94062.38;5042985;28;20497;-56
2022/11/21 10:10:40;;;;;;;1.30;0.90;;;9.30;99.90;;;9.32;66.53;94057.44;5045944;28;20551;-56
2022/11/21 10:13:18;;;;;;;2.03;0.90;;;9.30;99.90;;;9.31;66.32;94068.91;5046217;28;20487;-55
2022/11/21 10:15:57;;;;;;;1.50;1.40;;;9.30;99.90;;;9.30;66.30;94064.63;5042904;28;21002;-57
2022/11/21 10:18:56;;;;;;;1.40;1.30;;;9.30;99.90;;;9.30;66.39;94075.13;5046165;28;20513;-57
2022/11/21 10:21:40;;;;;;;4.40;4.10;;;9.30;99.90;;;9.30;66.72;94072.50;5020050;28;20444;-55
2022/11/21 10:24:21;;;;;;;3.40;1.43;;;9.30;99.90;;;9.28;66.25;94076.25;5043317;28;21030;-56
2022/11/21 10:26:52;;;;;;;2.20;2.10;;;9.20;99.90;;;9.22;66.21;94075.06;5045879;28;20451;-54
2022/11/21 10:29:24;;;;;;;3.73;3.00;;;9.20;99.90;;;9.19;65.92;94088.50;5044341;28;20478;-56
2022/11/21 10:31:51;;;;;;;2.67;2.50;;;9.20;99.90;;;9.12;66.12;94077.78;5045664;28;20535;-56
2022/11/21 10:34:21;;;;;;;2.90;2.80;;;9.10;99.90;;;9.08;65.95;94073.00;5041583;28;20470;-55
2022/11/21 10:36:50;;;;;;;3.00;2.80;;;9.10;99.90;;;9.03;65.62;94057.72;5045817;28;20980;-56
2022/11/21 10:39:20;;;;;;;2.10;1.90;;;9.10;99.90;;;9.00;66.21;94058.00;5045617;28;20522;-55
2022/11/21 10:41:51;;;;;;;1.87;1.70;;;9.00;99.90;;;8.97;65.92;94072.25;5046334;28;20448;-56